Barnum, MN

5:09 PM CDT on April 21, 2015 (GMT -0500)
Coffee Lake | | Change Station
CLOSE
Current Station
Personal Weather Station
Location: Moose Lake Twp., MN
Elevation: 1060 ft
Nearby Weather Stations

Elev 1060 ft 46.43 °N, 92.78 °W | Updated 1 second ago

Snow
Snow
31.8 °F
Feels Like 22 °F
N
14.5
Wind Variable Wind from NNW
Gusts 17.4 mph

Today
High -- | Low -- °F
--% Chance of Precip.
Yesterday
High -- | Low -- °F
Precip. -- in
6:13 AM 8:06 PM
Waxing Crescent, 13% visible
Pressure 29.60 in
Visibility 1.8 miles
Clouds Scattered Clouds 900 ft
Mostly Cloudy 1800 ft
Overcast 4000 ft
Windchill 22 °F
Dew Point 27 °F
Humidity 81%
Rainfall 0.00 in
Snow Depth Not available.
UV 1 out of 12
Pollen 4.40 out of 12
Air Quality Not available.
Flu Activity Local Activity
METAR KMZH 212152Z AUTO 31011G18KT 1 3/4SM -SN SCT009 BKN018 OVC040 00/M02 A2960 RMK AO2 VIS 1 1/4V5

More Conditions Fewer Conditions

Pressure 29.60 in
Visibility 1.8 miles
Clouds Scattered Clouds 900 ft
Mostly Cloudy 1800 ft
Overcast 4000 ft
Windchill 22 °F
Dew Point 27 °F
Humidity 81%
Rainfall 0.00 in
Snow Depth Not available.
UV 1 out of 12
Pollen 4.40 out of 12
Air Quality Not available.
Flu Activity Local Activity
METAR KMZH 212152Z AUTO 31011G18KT 1 3/4SM -SN SCT009 BKN018 OVC040 00/M02 A2960 RMK AO2 VIS 1 1/4V5

More Conditions Fewer Conditions

10-Day Weather Forecast

Almanac

Astronomy

Apr. 21, 2015 Rise Set
Actual Time
Civil Twilight
Nautical Twilight
Astronomical Twilight
Moon
Length of Visible Light
Length of Day
Tomorrow will be .
, % of the Moon is Illuminated

Today's Extremes

State Highs State Lows

Community

WunderPhotos

Upload Photos

1,815,552 photos uploaded!

WunderBlogs® & News

Nearby

Air Quality

  Air Quality AQ Index Pollutant
Not available.

Snow Depth

Station Depth Elevation

Earthquake Activity

City Distance Mag. Time & Date
Minimum magnitude displayed is 2.5.

Coastal Water Temperatures

Place Temperature

Stations

Nearby Weather Stations

Station Location Temp. Windchill Dew Point Humidity Wind Precip. Elev Updated Type